Caldwell, Kansas
Current Conditions -  °F | °C
As of 1:35 AM on Wednesday 22 Oct 2014 (Local Time) from KBKN Reporting Station
Few Clouds Few Clouds  
Wind Chill: 64°   Ceiling: Unl
Heat Index: 64°   Visibility: 10mi
Dew Point: 59°   Wind: 8mph
Humidity: 83%   Direction: 160°SSE
Pressure: 30.04"   Gusts: NA
Location:  37.03°N, 97.61°W
Report Text: KBKN 220635Z AUTO 16007KT 10SM FEW050 18/15 A3004 RMK AO2
Loading
Personal Weather Stations






























Interactive Weather Map
Tropical Storm Tracking
New forecast layout! Learn more

10-Day Weather Forecast

Advertisements
Track Severe Weather on mobile